Stockville, Nebraska
Current Conditions -  °F | °C
As of 2:53 PM on Thursday 20 Nov 2014 (Local Time) from KMCK Reporting Station
Clear Clear  
Wind Chill: 40°   Ceiling: Unl
Heat Index: 44°   Visibility: 10mi
Dew Point: 22°   Wind: 7mph
Humidity: 42%   Direction: 120°ESE
Pressure: 30.02"   Gusts: NA
Location:  40.53°N, 100.38°W
Report Text: KMCK 202053Z AUTO 12006KT 10SM CLR 07/M06 A3002 RMK AO2 SLP190 T00671056 56017
Loading
Personal Weather Stations






























Interactive Weather Map New forecast layout! Learn more

10-Day Weather Forecast

Advertisements
Track Severe Weather on mobile